Time;durP1;ratioP1;P1;durP2;ratioP2;P2;SDS_P1;SDS_P2;PMS_P1;PMS_P2;Temp;Humidity;BMP_temperature;BMP_pressure;BME280_temperature;BME280_humidity;BME280_pressure;Samples;Min_cycle;Max_cycle;Signal;HPM_P1;HPM_P2
2021/01/30 00:02:47;;;;;;;48.92;21.97;;;;;;;-1.51;100.00;97064.37;4292937;82;44430;-80
2021/01/30 00:08:50;;;;;;;44.73;18.60;;;;;;;-1.58;100.00;97054.62;4284378;82;43812;-80
2021/01/30 00:14:54;;;;;;;42.98;19.92;;;;;;;-1.51;100.00;97081.00;4276122;82;43776;-80
2021/01/30 00:20:56;;;;;;;48.48;22.10;;;;;;;-1.56;100.00;97076.34;4281250;82;44449;-80
2021/01/30 00:27:02;;;;;;;44.45;18.95;;;;;;;-1.57;100.00;97065.46;4288373;82;43782;-80
2021/01/30 00:33:06;;;;;;;47.75;20.35;;;;;;;-1.48;100.00;97064.78;4295367;82;43771;-80
2021/01/30 00:39:08;;;;;;;42.00;18.67;;;;;;;-1.65;100.00;97063.05;4251323;82;43666;-80
2021/01/30 00:45:14;;;;;;;51.05;23.20;;;;;;;-1.69;100.00;97066.59;4188187;83;44431;-81
2021/01/30 00:51:19;;;;;;;47.67;21.73;;;;;;;-1.65;100.00;97081.49;4226865;84;43761;-79
2021/01/30 00:57:22;;;;;;;43.40;19.25;;;;;;;-1.44;100.00;97094.19;4192518;84;28567;-80
2021/01/30 01:03:25;;;;;;;43.10;20.37;;;;;;;-1.28;100.00;97091.13;4226702;84;43768;-80
2021/01/30 01:09:38;;;;;;;41.08;18.98;;;;;;;-1.47;100.00;97078.26;4498751;78;85568;-80
2021/01/30 01:15:40;;;;;;;45.48;20.82;;;;;;;-1.33;100.00;97079.08;4407372;80;43736;-80
2021/01/30 01:21:42;;;;;;;45.00;20.37;;;;;;;-1.62;100.00;97081.58;4409225;80;43772;-80
2021/01/30 01:27:44;;;;;;;45.10;20.15;;;;;;;-1.52;100.00;97075.92;4386155;80;43763;-80
2021/01/30 01:33:47;;;;;;;47.50;20.08;;;;;;;-1.47;100.00;97076.94;4384812;80;43788;-80
2021/01/30 01:39:49;;;;;;;44.33;20.95;;;;;;;-1.55;100.00;97063.95;4402752;80;43830;-80
2021/01/30 01:46:05;;;;;;;46.77;21.50;;;;;;;-1.50;100.00;97066.81;4416231;80;43732;-80
2021/01/30 01:52:22;;;;;;;43.17;19.90;;;;;;;-1.54;100.00;97069.53;4409888;78;43780;-81
2021/01/30 01:58:26;;;;;;;45.92;19.57;;;;;;;-1.47;100.00;97065.08;4397031;80;43757;-81
2021/01/30 02:04:29;;;;;;;46.37;19.50;;;;;;;-1.33;100.00;97059.30;4357833;80;28594;-81
2021/01/30 02:10:44;;;;;;;47.80;22.55;;;;;;;-1.28;100.00;97052.11;4370506;80;44099;-79
2021/01/30 02:16:49;;;;;;;;;;;;;;;-1.46;100.00;97049.56;4400244;79;28598;-80
2021/01/30 02:23:34;;;;;;;43.13;20.55;;;;;;;-1.35;100.00;97040.73;4400760;80;20175;-80
2021/01/30 02:30:01;;;;;;;45.30;20.97;;;;;;;-1.29;100.00;97035.45;4380920;80;28655;-79
2021/01/30 02:36:30;;;;;;;46.75;21.30;;;;;;;-1.21;100.00;97019.92;4469475;79;85204;-80
2021/01/30 02:42:44;;;;;;;46.10;21.30;;;;;;;-1.22;100.00;97017.52;4379478;80;43787;-79
2021/01/30 02:48:51;;;;;;;44.42;20.35;;;;;;;-1.30;100.00;97002.20;4362657;79;43772;-79
2021/01/30 02:54:57;;;;;;;43.75;20.62;;;;;;;-1.24;100.00;96998.45;4388601;80;43755;-79
2021/01/30 03:00:59;;;;;;;43.48;21.40;;;;;;;-1.29;100.00;96994.59;4438282;80;43764;-79
2021/01/30 03:07:52;;;;;;;41.60;18.57;;;;;;;-1.35;100.00;97002.02;4411988;80;42886;-80
2021/01/30 03:14:11;;;;;;;49.35;21.00;;;;;;;-1.02;100.00;96995.87;4399787;78;44514;-80
2021/01/30 03:20:15;;;;;;;52.73;22.95;;;;;;;-0.87;100.00;96993.48;4382730;80;43946;-80
2021/01/30 03:26:22;;;;;;;39.33;20.62;;;;;;;-1.23;100.00;96978.45;4412891;80;42862;-80
2021/01/30 03:32:28;;;;;;;44.42;22.00;;;;;;;-1.19;100.00;96968.31;4374508;80;43756;-80
2021/01/30 03:38:31;;;;;;;43.95;19.87;;;;;;;-1.12;100.00;96976.50;4401803;78;43728;-80
2021/01/30 03:44:33;;;;;;;47.20;21.93;;;;;;;-1.01;100.00;96967.15;4410520;79;44455;-80
2021/01/30 03:50:35;;;;;;;55.50;24.98;;;;;;;-0.82;100.00;96964.66;4393847;78;44204;-80
2021/01/30 03:56:38;;;;;;;54.18;24.27;;;;;;;-0.77;100.00;96962.71;4442116;78;44186;-79
2021/01/30 04:02:41;;;;;;;51.33;22.95;;;;;;;-1.05;100.00;96953.27;4428491;80;44130;-79
2021/01/30 04:08:44;;;;;;;50.40;23.38;;;;;;;-1.03;100.00;96944.63;4419320;80;44008;-78
2021/01/30 04:14:46;;;;;;;55.38;23.80;;;;;;;-0.85;100.00;96924.98;4401686;78;44114;-78
2021/01/30 04:20:49;;;;;;;53.65;23.60;;;;;;;-1.09;100.00;96929.13;4402937;80;44302;-79
2021/01/30 04:26:51;;;;;;;49.27;23.32;;;;;;;-0.90;100.00;96927.42;4416937;80;44439;-78
2021/01/30 04:32:53;;;;;;;58.00;24.00;;;;;;;-0.73;100.00;96919.86;4382178;80;44105;-78
2021/01/30 04:38:56;;;;;;;49.85;23.57;;;;;;;-0.81;100.00;96916.14;4345805;80;44483;-79
2021/01/30 04:45:13;;;;;;;52.10;23.87;;;;;;;-0.67;100.00;96898.41;4326954;81;43623;-80
2021/01/30 04:51:41;;;;;;;46.28;21.37;;;;;;;-0.69;100.00;96891.72;4337348;81;43734;-80
2021/01/30 04:58:04;;;;;;;47.95;22.13;;;;;;;-0.59;100.00;96879.66;4329324;80;44494;-81
2021/01/30 05:04:27;;;;;;;48.28;22.73;;;;;;;-0.73;100.00;96875.00;4339645;80;44462;-81
2021/01/30 05:10:36;;;;;;;55.80;22.10;;;;;;;-0.65;100.00;96874.42;4344019;81;44128;-81
2021/01/30 05:16:43;;;;;;;48.58;21.25;;;;;;;-0.63;100.00;96874.52;4356616;81;44499;-79
2021/01/30 05:22:48;;;;;;;49.48;22.32;;;;;;;-0.47;100.00;96865.78;4323062;81;44484;-79
2021/01/30 05:29:10;;;;;;;50.12;22.85;;;;;;;-0.63;100.00;96867.10;4308626;81;44099;-79
2021/01/30 05:35:23;;;;;;;48.45;22.85;;;;;;;-0.63;100.00;96869.24;4342721;80;44444;-79
2021/01/30 05:41:59;;;;;;;52.25;23.10;;;;;;;-0.68;100.00;96871.69;4414164;80;43921;-78
2021/01/30 05:48:03;;;;;;;60.30;25.05;;;;;;;-0.67;100.00;96864.10;4412160;79;42863;-78
2021/01/30 05:54:05;;;;;;;60.10;26.85;;;;;;;-0.73;100.00;96868.89;4414473;80;42343;-79
2021/01/30 06:00:08;;;;;;;56.80;26.87;;;;;;;-0.71;100.00;96864.21;4412300;78;43601;-79
2021/01/30 06:06:10;;;;;;;59.58;25.60;;;;;;;-0.78;100.00;96866.89;4432784;79;43247;-78
2021/01/30 06:12:26;;;;;;;55.33;24.10;;;;;;;-0.81;100.00;96859.91;4409480;80;44126;-78
2021/01/30 06:18:40;;;;;;;50.85;23.35;;;;;;;-0.83;100.00;96860.63;4403374;80;44459;-79
2021/01/30 06:24:46;;;;;;;49.50;22.60;;;;;;;-0.89;100.00;96857.80;4385655;80;44474;-79
2021/01/30 06:30:49;;;;;;;51.50;23.75;;;;;;;-0.87;100.00;96854.47;4407002;80;28603;-79
2021/01/30 06:36:53;;;;;;;46.58;22.70;;;;;;;-0.76;100.00;96850.86;4421992;80;44119;-79
2021/01/30 06:43:06;;;;;;;55.25;23.55;;;;;;;-0.70;100.00;96828.88;4461018;78;44102;-79
2021/01/30 06:49:18;;;;;;;51.02;23.00;;;;;;;-0.81;100.00;96831.70;4434321;80;44000;-78
2021/01/30 06:55:23;;;;;;;56.83;26.27;;;;;;;-0.72;100.00;96836.20;4413171;80;43610;-79
2021/01/30 07:01:40;;;;;;;57.70;25.03;;;;;;;-0.70;100.00;96826.23;4424533;80;28577;-79
2021/01/30 07:08:11;;;;;;;48.17;22.27;;;;;;;-0.62;100.00;96816.75;4381923;80;44467;-78
2021/01/30 07:14:47;;;;;;;56.75;24.15;;;;;;;-0.69;100.00;96814.66;4430466;80;44157;-79
2021/01/30 07:21:07;;;;;;;56.18;24.25;;;;;;;-0.62;100.00;96798.80;4432664;79;44098;-79
2021/01/30 07:27:26;;;;;;;51.02;24.55;;;;;;;-0.40;100.00;96787.87;4409298;80;43595;-79
2021/01/30 07:33:45;;;;;;;54.93;24.80;;;;;;;-0.46;100.00;96767.89;4438281;80;44102;-79
2021/01/30 07:40:02;;;;;;;56.48;26.62;;;;;;;-0.24;100.00;96766.70;4432078;80;43629;-78
2021/01/30 07:46:16;;;;;;;51.00;24.87;;;;;;;-0.29;100.00;96764.19;4436537;80;28549;-79
2021/01/30 07:52:26;;;;;;;57.50;26.85;;;;;;;0.01;100.00;96760.55;4423073;80;28602;-81
2021/01/30 07:58:53;;;;;;;64.80;29.65;;;;;;;-0.05;100.00;96759.10;4389731;80;43410;-80
2021/01/30 08:05:12;;;;;;;58.78;28.35;;;;;;;0.18;100.00;96748.39;4388442;80;28581;-81
2021/01/30 08:11:42;;;;;;;63.90;29.40;;;;;;;0.16;100.00;96747.80;4405751;80;43386;-79
2021/01/30 08:18:21;;;;;;;59.18;27.17;;;;;;;0.23;100.00;96727.91;4584636;76;85127;-82
2021/01/30 08:24:36;;;;;;;64.62;28.55;;;;;;;0.22;100.00;96724.44;4489994;78;28569;-82
2021/01/30 08:30:39;;;;;;;;;;;;;;;0.35;100.00;96714.73;4490101;77;28604;-80
2021/01/30 08:36:45;;;;;;;58.15;27.25;;;;;;;0.38;100.00;96709.02;4500914;77;42185;-79
2021/01/30 08:43:01;;;;;;;60.28;28.30;;;;;;;0.40;100.00;96711.70;4502253;77;28601;-81
2021/01/30 08:49:21;;;;;;;73.57;32.13;;;;;;;0.34;100.00;96721.87;4493556;77;44113;-81
2021/01/30 08:55:33;;;;;;;65.05;29.00;;;;;;;0.51;100.00;96719.41;4508387;77;43383;-78
2021/01/30 09:01:41;;;;;;;59.10;28.52;;;;;;;0.66;100.00;96719.52;4492260;77;28568;-77
2021/01/30 09:08:00;;;;;;;60.95;28.55;;;;;;;0.71;100.00;96714.88;4484798;78;28542;-82
2021/01/30 09:14:07;;;;;;;62.88;29.10;;;;;;;0.99;100.00;96710.33;4495288;78;43384;-77
2021/01/30 09:20:15;;;;;;;60.17;28.32;;;;;;;1.08;100.00;96714.77;4482678;78;28652;-78
2021/01/30 09:26:58;;;;;;;57.80;27.85;;;;;;;1.07;100.00;96713.16;4484371;78;28577;-79
2021/01/30 09:33:04;;;;;;;58.58;29.15;;;;;;;1.56;100.00;96714.80;4499440;78;28580;-78
2021/01/30 09:39:33;;;;;;;60.90;29.07;;;;;;;1.64;100.00;96710.48;4484039;78;28597;-79
2021/01/30 09:45:38;;;;;;;62.62;30.20;;;;;;;1.69;100.00;96706.64;4273261;83;28543;-81
2021/01/30 09:51:42;;;;;;;62.55;29.75;;;;;;;1.80;100.00;96712.44;4275978;82;28610;-79
2021/01/30 09:57:47;;;;;;;;;;;;;;;1.81;100.00;96707.94;4274879;82;28602;-79
2021/01/30 10:03:49;;;;;;;81.30;38.75;;;;;;;2.07;100.00;96696.56;4278215;82;20292;-79
2021/01/30 10:09:52;;;;;;;67.55;30.85;;;;;;;2.53;100.00;96694.51;4273974;82;28681;-80
2021/01/30 10:15:56;;;;;;;57.30;28.47;;;;;;;2.42;100.00;96692.98;4273426;83;28630;-77
2021/01/30 10:22:00;;;;;;;48.20;24.45;;;;;;;2.33;100.00;96698.38;4280810;82;28640;-76
2021/01/30 10:28:09;;;;;;;46.90;22.30;;;;;;;2.67;100.00;96697.69;4277542;82;28545;-80
2021/01/30 10:34:31;;;;;;;30.30;14.60;;;;;;;2.77;100.00;96705.33;4191035;84;28573;-75
2021/01/30 10:40:49;;;;;;;21.93;9.68;;;;;;;3.13;100.00;96702.48;4147498;84;29098;-76
2021/01/30 10:46:57;;;;;;;27.30;13.40;;;;;;;3.26;100.00;96707.18;4106415;85;28589;-78
2021/01/30 10:53:37;;;;;;;15.65;7.50;;;;;;;3.11;100.00;96735.08;4106965;85;28611;-76
2021/01/30 10:59:56;;;;;;;9.93;4.83;;;;;;;2.97;100.00;96761.66;4104264;85;28587;-81
2021/01/30 11:06:34;;;;;;;11.77;5.80;;;;;;;2.86;100.00;96782.70;4472768;76;272002;-81
2021/01/30 11:12:37;;;;;;;15.25;7.25;;;;;;;2.90;100.00;96793.12;4488619;77;41196;-80
2021/01/30 11:18:47;;;;;;;18.65;9.93;;;;;;;2.60;100.00;96786.20;4498555;77;28621;-77
2021/01/30 11:24:55;;;;;;;22.67;10.80;;;;;;;2.35;100.00;96838.20;4491875;77;28563;-77
2021/01/30 11:30:57;;;;;;;27.98;13.30;;;;;;;2.14;100.00;96874.05;4523207;77;28609;-76
2021/01/30 11:37:01;;;;;;;38.80;18.27;;;;;;;1.86;100.00;96909.45;4489719;77;28545;-76
2021/01/30 11:43:04;;;;;;;50.03;21.25;;;;;;;1.73;100.00;96922.37;4499654;77;28572;-76
2021/01/30 11:49:06;;;;;;;50.45;21.62;;;;;;;1.43;100.00;96947.55;4489486;77;28534;-77
2021/01/30 11:55:09;;;;;;;55.60;24.90;;;;;;;1.16;100.00;96980.95;4489890;77;28571;-78
2021/01/30 12:01:14;;;;;;;50.05;21.60;;;;;;;0.96;100.00;96999.19;4505603;77;28598;-78
2021/01/30 12:07:16;;;;;;;54.63;23.67;;;;;;;0.57;100.00;97035.55;4393089;79;28590;-77
2021/01/30 12:13:19;;;;;;;47.25;22.22;;;;;;;0.09;100.00;97083.98;4395731;79;44529;-77
2021/01/30 12:19:21;;;;;;;45.90;22.77;;;;;;;-0.08;100.00;97106.12;4403668;78;28617;-77
2021/01/30 12:25:24;;;;;;;42.75;19.90;;;;;;;-0.05;100.00;97115.77;4411672;79;28602;-77
2021/01/30 12:31:27;;;;;;;42.53;20.15;;;;;;;-0.42;100.00;97135.28;4417434;79;28584;-75
2021/01/30 12:37:30;;;;;;;38.55;18.65;;;;;;;-0.28;100.00;97154.55;4374734;79;44513;-75
2021/01/30 12:43:32;;;;;;;33.40;15.72;;;;;;;-0.37;100.00;97169.78;4432341;79;28583;-75
2021/01/30 12:49:34;;;;;;;26.10;12.03;;;;;;;-0.36;100.00;97182.00;4422582;79;42896;-75
2021/01/30 12:55:37;;;;;;;26.68;12.95;;;;;;;-0.39;100.00;97202.19;4421240;79;28555;-77
2021/01/30 13:01:39;;;;;;;22.20;10.05;;;;;;;-0.45;100.00;97218.87;4420859;77;44500;-77
2021/01/30 13:07:43;;;;;;;20.37;9.85;;;;;;;-0.86;100.00;97255.83;4509396;77;44164;-75
2021/01/30 13:13:45;;;;;;;18.23;8.30;;;;;;;-0.83;100.00;97277.05;4382872;80;43911;-77
2021/01/30 13:19:47;;;;;;;19.42;8.95;;;;;;;-0.79;100.00;97297.22;4363917;80;43931;-76
2021/01/30 13:25:49;;;;;;;22.22;9.23;;;;;;;-0.75;100.00;97303.75;4354542;80;43915;-76
2021/01/30 13:31:52;;;;;;;24.12;9.80;;;;;;;-0.96;100.00;97316.58;4356379;80;43942;-74
2021/01/30 13:37:55;;;;;;;22.15;10.20;;;;;;;-1.07;100.00;97329.86;4352452;81;44451;-76
2021/01/30 13:43:58;;;;;;;18.65;9.18;;;;;;;-1.10;100.00;97328.91;4328263;80;43946;-75
2021/01/30 13:50:03;;;;;;;23.95;10.82;;;;;;;-1.00;100.00;97339.90;4351634;80;42882;-75
2021/01/30 13:56:06;;;;;;;20.72;9.50;;;;;;;-1.12;100.00;97341.80;4393733;80;43966;-80
2021/01/30 14:02:08;;;;;;;22.85;10.00;;;;;;;-1.16;100.00;97353.77;4394844;80;44427;-78
2021/01/30 14:08:11;;;;;;;20.60;9.35;;;;;;;-0.81;100.00;97370.51;4343291;80;43946;-79
2021/01/30 14:14:13;;;;;;;23.73;10.88;;;;;;;-1.19;100.00;97377.08;4358845;80;43646;-79
2021/01/30 14:20:17;;;;;;;21.85;9.43;;;;;;;-1.06;100.00;97391.63;4382211;80;43977;-80
2021/01/30 14:26:22;;;;;;;19.90;8.38;;;;;;;-0.98;100.00;97398.58;4357756;80;43977;-78
2021/01/30 14:32:24;;;;;;;18.07;8.75;;;;;;;-1.17;100.00;97411.97;4349778;80;43942;-80
2021/01/30 14:38:26;;;;;;;20.23;9.05;;;;;;;-1.05;100.00;97420.95;4353331;81;43941;-79
2021/01/30 14:44:29;;;;;;;20.62;8.85;;;;;;;-0.96;100.00;97437.45;4400760;80;44019;-82
2021/01/30 14:50:31;;;;;;;20.35;9.68;;;;;;;-0.87;100.00;97448.15;4386406;79;43984;-80
2021/01/30 14:56:35;;;;;;;18.42;9.33;;;;;;;-0.86;100.00;97457.69;4373031;80;43982;-82
2021/01/30 15:02:37;;;;;;;23.83;11.08;;;;;;;-0.71;100.00;97465.95;4344476;80;43694;-82
2021/01/30 15:08:40;;;;;;;26.07;12.15;;;;;;;-0.61;100.00;97476.96;4345101;80;42886;-82
2021/01/30 15:14:42;;;;;;;25.17;12.10;;;;;;;-0.87;100.00;97492.18;4366107;81;43748;-80
2021/01/30 15:20:45;;;;;;;31.25;13.43;;;;;;;-1.01;100.00;97503.99;4382379;80;44077;-79
2021/01/30 15:26:47;;;;;;;31.33;13.35;;;;;;;-1.13;100.00;97519.53;4361712;80;43894;-79
2021/01/30 15:32:50;;;;;;;29.30;12.15;;;;;;;-1.34;100.00;97524.37;4331007;80;43426;-79
2021/01/30 15:38:52;;;;;;;30.85;13.05;;;;;;;-1.44;100.00;97538.39;4358493;81;43406;-78
2021/01/30 15:44:54;;;;;;;22.40;11.25;;;;;;;-1.62;100.00;97544.10;4375307;80;44459;-79
2021/01/30 15:50:56;;;;;;;25.82;10.40;;;;;;;-1.50;100.00;97553.64;4386357;81;42893;-81
2021/01/30 15:56:58;;;;;;;22.75;9.85;;;;;;;-1.61;100.00;97563.69;4351896;80;44191;-78
2021/01/30 16:03:04;;;;;;;20.43;9.63;;;;;;;-1.49;100.00;97565.81;4357566;80;43911;-78
2021/01/30 16:09:05;;;;;;;21.57;9.25;;;;;;;-1.47;100.00;97573.02;4370151;80;43907;-80
2021/01/30 16:15:12;;;;;;;22.65;9.88;;;;;;;-1.38;100.00;97584.27;4371964;81;43939;-79
2021/01/30 16:21:14;;;;;;;24.05;11.22;;;;;;;-1.34;100.00;97586.34;4365801;81;43323;-79
2021/01/30 16:27:16;;;;;;;26.82;12.15;;;;;;;-1.43;100.00;97594.07;4360992;80;43218;-78
2021/01/30 16:33:18;;;;;;;28.98;12.33;;;;;;;-1.39;100.00;97599.27;4342787;80;43483;-79
2021/01/30 16:39:20;;;;;;;27.07;12.37;;;;;;;-1.48;100.00;97613.58;4351744;80;43327;-79
2021/01/30 16:45:23;;;;;;;31.30;14.87;;;;;;;-1.51;100.00;97613.96;4352058;80;44088;-78
2021/01/30 16:51:27;;;;;;;34.65;15.18;;;;;;;-1.66;100.00;97620.12;4379009;80;44094;-79
2021/01/30 16:57:33;;;;;;;32.48;14.38;;;;;;;-1.55;100.00;97620.94;4355251;80;44104;-80
2021/01/30 17:03:36;;;;;;;30.90;13.90;;;;;;;-1.66;100.00;97621.44;4365978;80;29030;-78
2021/01/30 17:09:38;;;;;;;30.70;12.93;;;;;;;-1.46;100.00;97627.38;4361320;80;43402;-78
2021/01/30 17:15:40;;;;;;;34.23;14.45;;;;;;;-1.45;100.00;97643.54;4364152;80;44100;-79
2021/01/30 17:21:44;;;;;;;31.95;13.75;;;;;;;-1.50;100.00;97650.70;4353458;80;44081;-79
2021/01/30 17:27:46;;;;;;;34.58;15.10;;;;;;;-1.48;100.00;97657.91;4363196;80;44096;-81
2021/01/30 17:33:48;;;;;;;37.38;15.68;;;;;;;-1.39;100.00;97681.52;4343724;81;44479;-80
2021/01/30 17:39:50;;;;;;;32.93;14.70;;;;;;;-1.48;100.00;97687.39;4390626;80;44120;-79
2021/01/30 17:45:53;;;;;;;33.60;15.03;;;;;;;-1.41;100.00;97690.92;4398951;79;44118;-81
2021/01/30 17:51:55;;;;;;;33.55;14.65;;;;;;;-1.46;100.00;97692.80;4365163;80;44092;-82
2021/01/30 17:57:57;;;;;;;34.43;15.63;;;;;;;-1.51;100.00;97694.36;4362219;79;44116;-82
2021/01/30 18:04:00;;;;;;;34.80;16.05;;;;;;;-1.51;100.00;97698.32;4379624;79;44080;-82
2021/01/30 18:10:04;;;;;;;33.83;14.20;;;;;;;-1.43;100.00;97704.28;4422538;80;44099;-81
2021/01/30 18:16:07;;;;;;;36.37;16.70;;;;;;;-1.46;100.00;97701.20;4346593;80;28613;-81
2021/01/30 18:22:10;;;;;;;38.83;16.40;;;;;;;-1.47;100.00;97701.72;4370637;79;44427;-81
2021/01/30 18:28:12;;;;;;;39.30;16.62;;;;;;;-1.48;100.00;97704.53;4390110;80;44427;-79
2021/01/30 18:34:15;;;;;;;39.03;15.80;;;;;;;-1.39;100.00;97715.28;4316756;81;44432;-80
2021/01/30 18:40:21;;;;;;;36.28;15.70;;;;;;;-1.34;100.00;97716.88;4345512;81;44429;-79
2021/01/30 18:46:23;;;;;;;34.80;16.00;;;;;;;-1.26;100.00;97719.88;4322781;81;44126;-83
2021/01/30 18:52:26;;;;;;;31.00;14.38;;;;;;;-1.30;100.00;97721.24;4409931;79;44156;-82
2021/01/30 18:58:28;;;;;;;33.28;14.10;;;;;;;-1.32;100.00;97721.94;4400747;79;44126;-82
2021/01/30 19:04:33;;;;;;;32.73;13.53;;;;;;;-1.29;100.00;97727.66;4367559;80;44115;-83
2021/01/30 19:10:35;;;;;;;32.90;14.15;;;;;;;-1.22;100.00;97707.14;4368056;80;44128;-82
2021/01/30 19:16:37;;;;;;;34.63;14.40;;;;;;;-1.27;100.00;97717.73;4399701;80;44083;-82
2021/01/30 19:22:40;;;;;;;35.88;13.50;;;;;;;-1.32;100.00;97717.98;4296177;81;44428;-83
2021/01/30 19:28:42;;;;;;;31.45;14.03;;;;;;;-1.49;100.00;97725.31;4340119;80;43407;-80
2021/01/30 19:34:44;;;;;;;32.40;14.68;;;;;;;-1.52;100.00;97733.08;4364921;80;44136;-80
2021/01/30 19:40:46;;;;;;;34.23;14.58;;;;;;;-1.49;100.00;97734.53;4356641;80;44120;-82
2021/01/30 19:46:49;;;;;;;35.17;14.43;;;;;;;-1.51;100.00;97733.91;4354693;80;44149;-81
2021/01/30 19:52:51;;;;;;;37.28;15.50;;;;;;;-1.46;100.00;97738.94;4368008;80;44486;-81
2021/01/30 19:58:53;;;;;;;32.75;15.15;;;;;;;-1.63;100.00;97749.38;4359320;80;44104;-83
2021/01/30 20:04:56;;;;;;;31.95;13.60;;;;;;;-1.51;100.00;97759.78;4397281;79;44096;-82
2021/01/30 20:10:58;;;;;;;33.70;14.75;;;;;;;-1.46;100.00;97774.53;4398631;79;44089;-81
2021/01/30 20:17:01;;;;;;;31.15;13.60;;;;;;;-1.46;100.00;97776.34;4310115;80;44116;-81
2021/01/30 20:23:04;;;;;;;30.30;13.90;;;;;;;-1.47;100.00;97779.49;4411160;80;43780;-79
2021/01/30 20:29:07;;;;;;;30.92;12.70;;;;;;;-1.36;100.00;97777.38;4387907;80;43421;-76
2021/01/30 20:35:10;;;;;;;34.92;14.03;;;;;;;-1.34;100.00;97777.52;4310456;81;44113;-76
2021/01/30 20:41:13;;;;;;;33.10;13.80;;;;;;;-1.37;100.00;97775.23;4399825;80;44095;-78
2021/01/30 20:47:23;;;;;;;37.33;14.73;;;;;;;-1.43;100.00;97787.34;4338660;80;44466;-76
2021/01/30 20:53:28;;;;;;;32.93;13.58;;;;;;;-1.39;100.00;97783.84;4340525;80;44108;-77
2021/01/30 20:59:32;;;;;;;30.85;13.85;;;;;;;-1.50;100.00;97786.46;4399838;80;44083;-78
2021/01/30 21:05:38;;;;;;;30.95;13.25;;;;;;;-1.62;100.00;97788.73;4393077;79;28670;-77
2021/01/30 21:11:41;;;;;;;35.25;15.03;;;;;;;-1.66;100.00;97782.70;4358768;80;44138;-78
2021/01/30 21:17:43;;;;;;;34.67;15.60;;;;;;;-1.68;100.00;97796.05;4372087;80;44092;-77
2021/01/30 21:23:46;;;;;;;30.00;11.97;;;;;;;-1.80;100.00;97801.46;4372032;80;43398;-76
2021/01/30 21:29:50;;;;;;;34.27;14.80;;;;;;;-1.76;100.00;97801.44;4359317;80;44116;-75
2021/01/30 21:35:54;;;;;;;37.75;15.38;;;;;;;-1.82;100.00;97801.15;4348280;80;44475;-78
2021/01/30 21:41:56;;;;;;;38.55;15.55;;;;;;;-1.74;100.00;97816.05;4354676;80;44513;-77
2021/01/30 21:47:58;;;;;;;39.88;15.78;;;;;;;-1.77;100.00;97815.58;4355701;80;44428;-78
2021/01/30 21:54:03;;;;;;;37.80;16.10;;;;;;;-1.66;100.00;97813.84;4378507;80;44426;-78
2021/01/30 22:00:07;;;;;;;44.85;18.32;;;;;;;-1.62;100.00;97815.58;4370561;80;28555;-78
2021/01/30 22:06:11;;;;;;;43.20;17.60;;;;;;;-1.59;100.00;97825.27;4330790;80;28601;-78
2021/01/30 22:12:14;;;;;;;47.30;18.87;;;;;;;-1.59;100.00;97823.95;4388590;80;43863;-81
2021/01/30 22:18:16;;;;;;;47.35;19.35;;;;;;;-1.53;100.00;97828.19;4371353;80;43769;-80
2021/01/30 22:24:19;;;;;;;44.20;17.95;;;;;;;-1.52;100.00;97819.27;4376666;80;43722;-81
2021/01/30 22:30:21;;;;;;;47.95;19.50;;;;;;;-1.54;100.00;97829.98;4359250;80;43866;-81
2021/01/30 22:36:24;;;;;;;39.38;14.80;;;;;;;-1.53;100.00;97820.28;4354558;80;44572;-81
2021/01/30 22:42:26;;;;;;;43.35;18.00;;;;;;;-1.54;100.00;97823.41;4355639;80;42910;-80
2021/01/30 22:48:29;;;;;;;48.55;18.40;;;;;;;-1.60;100.00;97815.73;4350732;80;43821;-78
2021/01/30 22:54:31;;;;;;;48.02;20.02;;;;;;;-1.71;100.00;97813.06;4350256;80;43787;-80
2021/01/30 23:00:55;;;;;;;55.52;20.82;;;;;;;-1.72;100.00;97818.51;4360058;80;44127;-79
2021/01/30 23:06:57;;;;;;;51.90;20.48;;;;;;;-1.75;100.00;97814.41;4358580;80;44049;-79
2021/01/30 23:13:00;;;;;;;52.08;20.92;;;;;;;-1.75;100.00;97809.14;4355931;80;43564;-78
2021/01/30 23:19:03;;;;;;;56.75;22.45;;;;;;;-1.82;100.00;97821.42;4384894;80;44106;-78
2021/01/30 23:25:07;;;;;;;54.27;22.15;;;;;;;-1.76;100.00;97822.00;4363194;79;44152;-79
2021/01/30 23:31:12;;;;;;;58.10;21.87;;;;;;;-1.82;100.00;97832.77;4377072;80;28598;-78
2021/01/30 23:37:14;;;;;;;53.92;21.87;;;;;;;-1.80;100.00;97840.50;4356545;80;44090;-77
2021/01/30 23:43:18;;;;;;;49.83;19.92;;;;;;;-1.76;100.00;97848.35;4347301;80;44139;-78
2021/01/30 23:49:21;;;;;;;57.35;22.02;;;;;;;-1.86;100.00;97854.39;4349943;80;44115;-81
2021/01/30 23:55:24;;;;;;;58.28;21.97;;;;;;;-1.74;100.00;97867.95;4304947;81;44089;-78
